Time;durP1;ratioP1;P1;durP2;ratioP2;P2;SDS_P1;SDS_P2;PMS_P1;PMS_P2;Temp;Humidity;BMP_temperature;BMP_pressure;BME280_temperature;BME280_humidity;BME280_pressure;Samples;Min_cycle;Max_cycle;Signal;HPM_P1;HPM_P2
2021/06/30 00:01:44;;;;;;;8.03;7.63;;;25.30;94.10;;;;;;3536775;40;20482;-65
2021/06/30 00:04:11;;;;;;;8.07;7.77;;;25.30;94.10;;;;;;3538102;40;21130;-65
2021/06/30 00:06:41;;;;;;;7.97;7.67;;;25.30;94.10;;;;;;3537899;40;20486;-65
2021/06/30 00:09:09;;;;;;;7.97;7.47;;;25.30;94.10;;;;;;3537987;40;20474;-65
2021/06/30 00:11:36;;;;;;;8.50;8.20;;;25.30;94.10;;;;;;3528845;40;20691;-65
2021/06/30 00:14:05;;;;;;;8.20;7.90;;;25.30;94.10;;;;;;3536072;40;20882;-65
2021/06/30 00:16:34;;;;;;;8.23;7.93;;;25.30;94.10;;;;;;3528816;40;20484;-65
2021/06/30 00:19:01;;;;;;;8.30;8.00;;;25.30;94.20;;;;;;3528072;40;20554;-65
2021/06/30 00:21:28;;;;;;;8.03;7.73;;;25.30;94.10;;;;;;3531015;40;20482;-65
2021/06/30 00:23:57;;;;;;;8.00;7.70;;;25.30;94.10;;;;;;3536502;40;20471;-65
2021/06/30 00:26:24;;;;;;;8.20;7.80;;;25.30;94.20;;;;;;3528713;40;20483;-65
2021/06/30 00:28:52;;;;;;;8.97;8.53;;;25.30;94.10;;;;;;3528132;40;20891;-65
2021/06/30 00:31:22;;;;;;;9.10;8.63;;;25.30;94.10;;;;;;3538395;40;20491;-65
2021/06/30 00:33:50;;;;;;;8.53;8.23;;;25.30;94.20;;;;;;3537945;40;21214;-65
2021/06/30 00:36:19;;;;;;;9.17;8.77;;;25.30;94.10;;;;;;3538353;40;20533;-65
2021/06/30 00:38:46;;;;;;;8.20;7.60;;;25.20;94.10;;;;;;3538220;40;20505;-65
2021/06/30 00:41:16;;;;;;;8.40;8.00;;;25.20;94.10;;;;;;3537376;40;20498;-65
2021/06/30 00:43:44;;;;;;;8.37;7.97;;;25.20;94.20;;;;;;3537928;40;20472;-65
2021/06/30 00:46:13;;;;;;;8.27;7.87;;;25.20;94.10;;;;;;3529310;40;20483;-65
2021/06/30 00:48:40;;;;;;;8.10;7.70;;;25.20;94.20;;;;;;3538303;40;20832;-65
2021/06/30 00:51:09;;;;;;;8.37;7.97;;;25.30;94.20;;;;;;3538306;40;20478;-65
2021/06/30 00:53:36;;;;;;;8.80;8.23;;;25.30;94.20;;;;;;3538276;40;20557;-65
2021/06/30 00:56:05;;;;;;;8.70;8.40;;;25.20;94.20;;;;;;3538475;40;20502;-65
2021/06/30 00:58:34;;;;;;;8.77;8.37;;;25.20;94.20;;;;;;3538260;40;20463;-65
2021/06/30 01:01:01;;;;;;;9.10;8.80;;;25.30;94.20;;;;;;3538205;40;20570;-65
2021/06/30 01:03:29;;;;;;;8.90;8.50;;;25.20;94.20;;;;;;3538283;40;20486;-65
2021/06/30 01:05:57;;;;;;;8.70;8.40;;;25.20;94.20;;;;;;3538088;40;20647;-65
2021/06/30 01:08:25;;;;;;;8.73;8.43;;;25.20;94.20;;;;;;3537933;40;20552;-65
2021/06/30 01:10:54;;;;;;;8.50;8.20;;;25.20;94.20;;;;;;3537981;40;20505;-65
2021/06/30 01:13:21;;;;;;;9.10;8.70;;;25.20;94.20;;;;;;3538258;40;20556;-65
2021/06/30 01:15:55;;;;;;;8.80;8.50;;;25.20;94.20;;;;;;3538179;40;20474;-65
2021/06/30 01:18:23;;;;;;;8.57;8.23;;;25.20;94.20;;;;;;3537460;40;20481;-65
2021/06/30 01:20:54;;;;;;;8.63;8.33;;;25.20;94.20;;;;;;3534503;40;20467;-65
2021/06/30 01:23:24;;;;;;;9.20;8.90;;;25.20;94.10;;;;;;3529846;40;20479;-65
2021/06/30 01:25:53;;;;;;;8.60;8.30;;;25.20;94.10;;;;;;3538598;40;20616;-65
2021/06/30 01:28:21;;;;;;;8.83;8.53;;;25.20;94.00;;;;;;3538056;40;20479;-65
2021/06/30 01:30:51;;;;;;;8.83;8.53;;;25.20;93.90;;;;;;3527564;40;20929;-65
2021/06/30 01:33:20;;;;;;;9.00;8.70;;;25.20;94.00;;;;;;3534626;40;20577;-65
2021/06/30 01:35:48;;;;;;;8.40;8.10;;;25.20;94.10;;;;;;3537999;40;20482;-65
2021/06/30 01:38:20;;;;;;;9.03;8.73;;;25.20;94.10;;;;;;3538582;40;20828;-65
2021/06/30 01:40:49;;;;;;;9.57;9.17;;;25.20;94.10;;;;;;3538030;40;20475;-65
2021/06/30 01:43:17;;;;;;;9.37;8.97;;;25.20;94.20;;;;;;3537904;40;20500;-65
2021/06/30 01:45:44;;;;;;;8.97;8.63;;;25.20;94.20;;;;;;3537610;40;20467;-65
2021/06/30 01:48:11;;;;;;;9.20;8.80;;;25.20;94.20;;;;;;3537162;40;20514;-65
2021/06/30 01:50:40;;;;;;;8.67;8.37;;;25.20;94.10;;;;;;3537921;40;21256;-65
2021/06/30 01:53:10;;;;;;;8.73;8.43;;;25.20;94.20;;;;;;3538344;40;20696;-65
2021/06/30 01:55:40;;;;;;;8.77;8.47;;;25.20;94.20;;;;;;3538596;40;20630;-65
2021/06/30 01:58:10;;;;;;;9.40;8.80;;;25.20;94.20;;;;;;3537630;40;20498;-65
2021/06/30 02:00:38;;;;;;;9.07;8.70;;;25.20;94.20;;;;;;3537628;40;20510;-65
2021/06/30 02:03:07;;;;;;;9.00;8.70;;;25.20;94.50;;;;;;3529005;40;20522;-65
2021/06/30 02:05:35;;;;;;;9.37;8.97;;;25.20;94.20;;;;;;3533659;40;20499;-65
2021/06/30 02:08:04;;;;;;;10.23;9.73;;;25.20;94.20;;;;;;3537709;40;20486;-65
2021/06/30 02:10:31;;;;;;;9.37;8.97;;;25.20;94.20;;;;;;3538389;40;20513;-65
2021/06/30 02:12:59;;;;;;;9.13;8.83;;;25.20;94.20;;;;;;3538026;40;21316;-65
2021/06/30 02:15:31;;;;;;;9.10;8.80;;;25.20;94.20;;;;;;3537209;40;20483;-65
2021/06/30 02:18:01;;;;;;;9.33;9.00;;;25.20;94.20;;;;;;3536225;40;20489;-65
2021/06/30 02:20:29;;;;;;;9.30;9.00;;;25.20;94.10;;;;;;3529089;40;20463;-65
2021/06/30 02:22:58;;;;;;;9.07;8.77;;;25.20;94.10;;;;;;3538620;40;20788;-65
2021/06/30 02:25:30;;;;;;;9.50;9.10;;;25.20;94.00;;;;;;3538059;40;20681;-65
2021/06/30 02:27:59;;;;;;;9.80;9.30;;;25.20;94.00;;;;;;3528157;40;20487;-65
2021/06/30 02:30:32;;;;;;;9.33;8.93;;;25.20;94.10;;;;;;3537679;40;20533;-65
2021/06/30 02:33:01;;;;;;;9.70;9.40;;;25.20;94.10;;;;;;3536667;40;20596;-65
2021/06/30 02:35:29;;;;;;;9.40;9.00;;;25.20;94.00;;;;;;3538357;40;20498;-65
2021/06/30 02:38:03;;;;;;;9.27;8.77;;;25.20;93.80;;;;;;3537873;40;21182;-65
2021/06/30 02:40:30;;;;;;;9.40;9.00;;;25.20;93.80;;;;;;3536375;40;20478;-65
2021/06/30 02:42:59;;;;;;;9.17;8.87;;;25.20;93.80;;;;;;3528347;40;20495;-65
2021/06/30 02:45:27;;;;;;;9.70;9.20;;;25.20;93.90;;;;;;3537900;40;20470;-65
2021/06/30 02:47:56;;;;;;;9.20;8.90;;;25.20;94.00;;;;;;3526108;40;21147;-65
2021/06/30 02:50:23;;;;;;;9.27;8.87;;;25.20;94.00;;;;;;3527957;40;20585;-65
2021/06/30 02:52:52;;;;;;;9.43;9.13;;;25.20;94.00;;;;;;3527596;40;20934;-65
2021/06/30 02:55:20;;;;;;;10.40;9.90;;;25.20;94.00;;;;;;3527685;40;20491;-65
2021/06/30 02:57:50;;;;;;;9.67;9.27;;;25.20;93.90;;;;;;3529867;40;21166;-65
2021/06/30 03:00:21;;;;;;;8.90;8.60;;;25.20;94.30;;;;;;3527960;40;20476;-65
2021/06/30 03:02:49;;;;;;;9.30;9.00;;;25.20;94.00;;;;;;3530986;40;20494;-65
2021/06/30 03:05:19;;;;;;;8.93;8.63;;;25.20;94.00;;;;;;3537174;40;20483;-65
2021/06/30 03:07:50;;;;;;;9.23;8.83;;;25.20;93.80;;;;;;3532836;40;20483;-65
2021/06/30 03:10:19;;;;;;;9.37;9.07;;;25.20;93.70;;;;;;3527807;40;20495;-65
2021/06/30 03:12:48;;;;;;;9.40;9.10;;;25.20;93.80;;;;;;3528730;40;20475;-65
2021/06/30 03:15:16;;;;;;;10.03;9.57;;;25.20;93.80;;;;;;3536329;40;20498;-65
2021/06/30 03:17:45;;;;;;;9.43;9.10;;;25.20;93.80;;;;;;3533380;40;20486;-65
2021/06/30 03:20:15;;;;;;;9.50;9.20;;;25.20;93.80;;;;;;3528100;40;20468;-65
2021/06/30 03:22:45;;;;;;;9.77;9.40;;;25.20;93.80;;;;;;3532273;40;20490;-65
2021/06/30 03:25:13;;;;;;;9.60;9.30;;;25.20;93.90;;;;;;3528459;40;20569;-65
2021/06/30 03:27:43;;;;;;;9.67;9.37;;;25.20;93.80;;;;;;3536189;40;20482;-65
2021/06/30 03:30:13;;;;;;;9.93;9.57;;;25.20;93.70;;;;;;3535942;40;20585;-65
2021/06/30 03:32:41;;;;;;;10.10;9.80;;;25.20;93.80;;;;;;3527901;40;20483;-65
2021/06/30 03:35:09;;;;;;;10.23;9.93;;;25.20;93.90;;;;;;3536312;40;20569;-65
2021/06/30 03:37:37;;;;;;;10.37;10.07;;;25.20;94.00;;;;;;3524868;40;20484;-65
2021/06/30 03:40:08;;;;;;;9.63;9.23;;;25.20;93.80;;;;;;3526781;40;20484;-65
2021/06/30 03:42:37;;;;;;;10.10;9.70;;;25.20;93.70;;;;;;3524106;40;20518;-65
2021/06/30 03:45:06;;;;;;;9.93;9.60;;;25.20;93.70;;;;;;3526664;40;20539;-65
2021/06/30 03:47:35;;;;;;;11.27;10.60;;;25.10;93.80;;;;;;3526441;40;20498;-65
2021/06/30 03:50:04;;;;;;;11.30;10.90;;;25.10;93.80;;;;;;3526726;40;20476;-65
2021/06/30 03:52:32;;;;;;;11.10;10.80;;;25.10;93.90;;;;;;3526903;40;20543;-65
2021/06/30 03:55:00;;;;;;;11.13;10.73;;;25.10;93.90;;;;;;3526002;40;20650;-65
2021/06/30 03:57:28;;;;;;;10.63;10.23;;;25.10;93.90;;;;;;3523846;40;20533;-65
2021/06/30 03:59:56;;;;;;;10.30;9.90;;;25.10;94.00;;;;;;3524118;40;20492;-65
2021/06/30 04:02:24;;;;;;;10.20;9.70;;;25.10;94.00;;;;;;3516472;40;20749;-65
2021/06/30 04:04:52;;;;;;;10.20;9.80;;;25.10;94.00;;;;;;3523789;40;20483;-65
2021/06/30 04:07:19;;;;;;;11.10;10.60;;;25.20;94.00;;;;;;3532138;40;20499;-65
2021/06/30 04:09:46;;;;;;;10.47;10.13;;;25.20;94.00;;;;;;3536527;40;20922;-65
2021/06/30 04:12:13;;;;;;;10.63;10.23;;;25.20;94.10;;;;;;3535769;40;20478;-65
2021/06/30 04:14:42;;;;;;;10.67;10.27;;;25.10;94.00;;;;;;3526341;40;20501;-65
2021/06/30 04:17:10;;;;;;;10.70;10.30;;;25.20;94.00;;;;;;3535088;40;20499;-65
2021/06/30 04:19:38;;;;;;;11.40;10.70;;;25.10;93.90;;;;;;3533916;40;21058;-65
2021/06/30 04:22:06;;;;;;;10.90;10.43;;;25.10;93.90;;;;;;3535041;40;20573;-65
2021/06/30 04:24:34;;;;;;;11.23;10.30;;;25.20;94.00;;;;;;3536357;40;20897;-65
2021/06/30 04:27:02;;;;;;;10.50;10.20;;;25.10;93.90;;;;;;3535636;40;20733;-65
2021/06/30 04:29:29;;;;;;;10.73;10.30;;;25.20;93.90;;;;;;3535931;40;20479;-65
2021/06/30 04:31:58;;;;;;;11.10;10.70;;;25.20;94.00;;;;;;3535053;40;20565;-65
2021/06/30 04:34:26;;;;;;;10.50;10.20;;;25.20;94.00;;;;;;3535804;40;20479;-65
2021/06/30 04:36:54;;;;;;;10.77;10.40;;;25.20;93.90;;;;;;3532916;40;20490;-65
2021/06/30 04:39:23;;;;;;;10.27;9.97;;;25.20;93.80;;;;;;3534171;40;20486;-65
2021/06/30 04:41:51;;;;;;;10.20;9.90;;;25.20;93.80;;;;;;3533338;40;20490;-65
2021/06/30 04:44:19;;;;;;;10.23;9.93;;;25.20;94.00;;;;;;3534527;40;20483;-65
2021/06/30 04:46:46;;;;;;;10.20;9.80;;;25.10;94.00;;;;;;3534665;40;20485;-65
2021/06/30 04:49:16;;;;;;;10.73;10.40;;;25.10;93.90;;;;;;3534509;40;20581;-65
2021/06/30 04:51:44;;;;;;;10.37;10.03;;;25.10;94.00;;;;;;3534396;40;20492;-65
2021/06/30 04:54:12;;;;;;;10.23;9.93;;;25.10;94.00;;;;;;3526018;40;20503;-65
2021/06/30 04:56:40;;;;;;;10.43;10.10;;;25.10;93.90;;;;;;3527649;40;20510;-65
2021/06/30 04:59:08;;;;;;;10.50;10.00;;;25.10;93.80;;;;;;3534839;40;20874;-65
2021/06/30 05:01:37;;;;;;;10.00;9.70;;;25.10;93.70;;;;;;3535916;40;20506;-65
2021/06/30 05:04:05;;;;;;;10.13;9.83;;;25.10;93.60;;;;;;3534761;40;20553;-65
2021/06/30 05:06:36;;;;;;;10.20;9.80;;;25.10;93.60;;;;;;3531154;40;20490;-65
2021/06/30 05:09:04;;;;;;;10.10;9.70;;;25.10;93.80;;;;;;3531231;40;20474;-65
2021/06/30 05:11:31;;;;;;;9.90;9.60;;;25.20;93.80;;;;;;3531906;40;20613;-65
2021/06/30 05:13:59;;;;;;;10.10;9.80;;;25.20;93.80;;;;;;3533518;40;20494;-65
2021/06/30 05:16:27;;;;;;;9.90;9.60;;;25.20;93.90;;;;;;3533402;40;20490;-65
2021/06/30 05:18:55;;;;;;;9.90;9.60;;;25.20;93.90;;;;;;3531076;40;20497;-65
2021/06/30 05:21:23;;;;;;;10.30;10.00;;;25.20;93.80;;;;;;3528905;40;20589;-65
2021/06/30 05:23:52;;;;;;;9.77;9.47;;;25.20;93.70;;;;;;3528443;40;21068;-65
2021/06/30 05:26:20;;;;;;;10.07;9.77;;;25.20;93.80;;;;;;3521000;40;20551;-65
2021/06/30 05:28:49;;;;;;;10.10;9.80;;;25.20;93.80;;;;;;3520397;40;21141;-65
2021/06/30 05:31:16;;;;;;;10.50;10.10;;;25.20;93.70;;;;;;3522975;40;20952;-65
2021/06/30 05:33:43;;;;;;;10.50;10.13;;;25.20;93.70;;;;;;3520274;40;20570;-65
2021/06/30 05:36:10;;;;;;;10.87;10.50;;;25.20;93.70;;;;;;3519807;40;20511;-65
2021/06/30 05:38:37;;;;;;;10.70;10.40;;;25.10;93.70;;;;;;3521147;40;20500;-65
2021/06/30 05:41:10;;;;;;;10.40;10.10;;;25.20;93.80;;;;;;3521378;40;20479;-65
2021/06/30 05:43:38;;;;;;;10.43;10.13;;;25.20;93.80;;;;;;3527730;40;20490;-65
2021/06/30 05:46:07;;;;;;;10.60;10.30;;;25.20;93.70;;;;;;3527849;40;20494;-65
2021/06/30 05:48:35;;;;;;;9.87;9.60;;;25.10;93.60;;;;;;3528673;40;20475;-65
2021/06/30 05:51:02;;;;;;;10.10;9.80;;;25.10;93.30;;;;;;3527848;40;20514;-65
2021/06/30 05:53:30;;;;;;;10.53;10.13;;;25.10;93.30;;;;;;3525836;40;20467;-65
2021/06/30 05:55:57;;;;;;;10.23;9.93;;;25.10;93.00;;;;;;3519262;40;20549;-65
2021/06/30 05:58:25;;;;;;;10.20;9.90;;;24.60;90.50;;;;;;3520366;40;21172;-65
2021/06/30 06:00:54;;;;;;;10.50;10.10;;;24.10;90.80;;;;;;3522508;40;20900;-65
2021/06/30 06:03:23;;;;;;;11.23;10.73;;;23.50;91.40;;;;;;3526501;40;20486;-65
2021/06/30 06:05:52;;;;;;;10.77;10.47;;;23.00;91.90;;;;;;3522720;40;20490;-64
2021/06/30 06:08:20;;;;;;;10.30;10.00;;;22.70;92.30;;;;;;3524773;40;20744;-63
2021/06/30 06:10:47;;;;;;;10.30;9.80;;;22.60;92.70;;;;;;3523933;40;20489;-62
2021/06/30 06:13:17;;;;;;;10.67;10.30;;;22.90;92.90;;;;;;3521912;40;21325;-63
2021/06/30 06:15:47;;;;;;;9.90;9.60;;;23.30;92.90;;;;;;3529756;40;20884;-63
2021/06/30 06:18:15;;;;;;;10.50;10.00;;;23.60;92.90;;;;;;3527411;40;20490;-63
2021/06/30 06:20:43;;;;;;;10.27;9.97;;;23.80;92.80;;;;;;3527586;40;20494;-63
2021/06/30 06:23:11;;;;;;;10.40;10.03;;;24.00;92.90;;;;;;3528266;40;20517;-63
2021/06/30 06:25:40;;;;;;;10.00;9.60;;;24.20;92.90;;;;;;3513406;40;20575;-63
2021/06/30 06:28:07;;;;;;;10.33;9.67;;;24.30;92.90;;;;;;3515855;40;20471;-63
2021/06/30 06:30:36;;;;;;;9.50;9.20;;;24.40;93.00;;;;;;3515430;40;20569;-63
2021/06/30 06:33:05;;;;;;;9.27;8.97;;;24.50;93.00;;;;;;3510779;40;20904;-63
2021/06/30 06:35:33;;;;;;;9.23;8.90;;;24.50;92.90;;;;;;3504449;40;20527;-63
2021/06/30 06:38:01;;;;;;;9.80;9.30;;;24.60;93.00;;;;;;3510089;40;21168;-63
2021/06/30 06:40:29;;;;;;;11.27;10.77;;;24.60;93.00;;;;;;3503863;40;20543;-63
2021/06/30 06:42:57;;;;;;;9.63;9.40;;;24.70;93.00;;;;;;3500662;40;20486;-64
2021/06/30 06:45:27;;;;;;;10.20;9.80;;;24.80;93.00;;;;;;3508778;40;20474;-62
2021/06/30 06:47:55;;;;;;;9.73;9.33;;;24.80;92.90;;;;;;3500258;40;20491;-62
2021/06/30 06:50:23;;;;;;;9.90;9.30;;;24.80;92.90;;;;;;3509776;40;20787;-62
2021/06/30 06:52:51;;;;;;;9.20;8.90;;;24.80;92.90;;;;;;3514844;40;20479;-62
2021/06/30 06:55:23;;;;;;;9.27;8.97;;;24.90;92.90;;;;;;3512032;40;20501;-62
2021/06/30 06:57:51;;;;;;;9.17;8.70;;;24.90;92.80;;;;;;3517042;40;20463;-62
2021/06/30 07:00:19;;;;;;;8.87;8.67;;;24.90;92.80;;;;;;3513173;40;21042;-62
2021/06/30 07:02:47;;;;;;;9.30;9.00;;;24.90;92.70;;;;;;3505556;40;21001;-62
2021/06/30 07:05:16;;;;;;;8.67;8.47;;;25.00;92.70;;;;;;3513468;40;20475;-61
2021/06/30 07:07:50;;;;;;;9.17;8.87;;;25.00;92.60;;;;;;3512145;40;20490;-62
2021/06/30 07:10:18;;;;;;;8.83;8.53;;;25.00;92.60;;;;;;3511082;40;20573;-62
2021/06/30 07:12:46;;;;;;;9.37;9.07;;;25.00;92.50;;;;;;3513075;40;20498;-62
2021/06/30 07:15:17;;;;;;;9.50;9.20;;;25.00;92.50;;;;;;3519695;40;20495;-62
2021/06/30 07:17:44;;;;;;;9.30;9.00;;;25.00;92.40;;;;;;3512096;40;20800;-61
2021/06/30 07:20:12;;;;;;;8.27;8.07;;;25.00;92.40;;;;;;3514534;40;20888;-62
2021/06/30 07:22:40;;;;;;;9.23;9.00;;;25.10;92.40;;;;;;3503180;40;20506;-62
2021/06/30 07:25:12;;;;;;;9.20;9.00;;;25.10;92.40;;;;;;3513772;40;20482;-62
2021/06/30 07:27:43;;;;;;;9.60;9.30;;;25.10;92.40;;;;;;3506016;40;20483;-61
2021/06/30 07:30:11;;;;;;;9.20;8.90;;;25.10;92.30;;;;;;3516087;40;20490;-62
2021/06/30 07:32:38;;;;;;;10.13;9.83;;;25.10;92.30;;;;;;3512199;40;20902;-62
2021/06/30 07:35:07;;;;;;;10.30;9.80;;;25.10;92.40;;;;;;3505794;40;20527;-62
2021/06/30 07:37:35;;;;;;;9.93;9.63;;;25.10;92.40;;;;;;3507825;40;20498;-61
2021/06/30 07:40:08;;;;;;;9.97;9.63;;;25.10;91.60;;;;;;3507005;40;20586;-62
2021/06/30 07:42:37;;;;;;;10.47;10.00;;;25.00;90.70;;;;;;3513161;40;20570;-62
2021/06/30 07:45:06;;;;;;;10.20;9.80;;;24.80;90.30;;;;;;3511111;40;20494;-62
2021/06/30 07:47:34;;;;;;;10.00;9.70;;;24.70;90.40;;;;;;3510154;40;20479;-62
2021/06/30 07:50:05;;;;;;;10.30;10.00;;;24.50;90.50;;;;;;3501558;40;20474;-62
2021/06/30 07:52:33;;;;;;;10.10;9.80;;;24.40;90.20;;;;;;3513093;40;20498;-62
2021/06/30 07:55:00;;;;;;;10.00;9.60;;;24.40;90.30;;;;;;3511097;40;20856;-62
2021/06/30 07:57:27;;;;;;;9.40;9.17;;;24.40;89.60;;;;;;3509400;40;21102;-61
2021/06/30 07:59:56;;;;;;;9.13;8.83;;;24.40;89.80;;;;;;3511050;40;20471;-63
2021/06/30 08:02:23;;;;;;;9.57;9.00;;;24.50;89.70;;;;;;3510122;40;20474;-63
2021/06/30 08:04:50;;;;;;;10.00;9.60;;;24.60;90.00;;;;;;3511851;40;21180;-62
2021/06/30 08:07:17;;;;;;;10.10;9.60;;;24.60;88.90;;;;;;3513034;40;20570;-62
2021/06/30 08:09:44;;;;;;;9.70;9.40;;;24.50;88.80;;;;;;3510013;40;20477;-62
2021/06/30 08:12:12;;;;;;;9.67;9.27;;;24.40;88.50;;;;;;3510477;40;21161;-62
2021/06/30 08:14:39;;;;;;;10.20;9.90;;;24.30;87.80;;;;;;3515000;40;21481;-62
2021/06/30 08:17:07;;;;;;;9.80;9.50;;;24.30;88.00;;;;;;3508924;40;20659;-63
2021/06/30 08:19:34;;;;;;;9.63;9.23;;;24.30;88.20;;;;;;3506934;40;20760;-62
2021/06/30 08:22:02;;;;;;;8.83;8.63;;;24.30;88.10;;;;;;3511099;40;20600;-62
2021/06/30 08:24:29;;;;;;;9.47;9.17;;;24.30;88.20;;;;;;3508032;40;20791;-62
2021/06/30 08:26:56;;;;;;;9.23;9.03;;;24.40;88.70;;;;;;3509611;40;21211;-63
2021/06/30 08:29:24;;;;;;;9.30;9.10;;;24.50;88.90;;;;;;3504454;40;20577;-62
2021/06/30 08:31:51;;;;;;;9.10;8.90;;;24.40;87.70;;;;;;3511848;40;20564;-63
2021/06/30 08:34:20;;;;;;;9.60;9.10;;;24.40;87.00;;;;;;3511292;40;20474;-62
2021/06/30 08:36:47;;;;;;;9.47;9.27;;;24.30;87.40;;;;;;3514263;40;20498;-62
2021/06/30 08:39:15;;;;;;;10.33;10.03;;;24.40;87.90;;;;;;3510291;40;20497;-63
2021/06/30 08:41:42;;;;;;;9.50;9.20;;;24.40;88.20;;;;;;3514286;40;20496;-62
2021/06/30 08:44:10;;;;;;;9.33;9.13;;;24.40;88.80;;;;;;3513682;40;20479;-62
2021/06/30 08:46:40;;;;;;;9.00;8.80;;;24.40;88.40;;;;;;3513873;40;20492;-62
2021/06/30 08:49:08;;;;;;;9.60;9.30;;;24.40;88.20;;;;;;3510799;40;20498;-62
2021/06/30 08:51:39;;;;;;;9.40;9.20;;;24.50;87.70;;;;;;3515021;40;21249;-61
2021/06/30 08:54:08;;;;;;;9.00;8.80;;;24.30;88.10;;;;;;3512674;40;20482;-62
2021/06/30 08:56:36;;;;;;;9.23;8.93;;;24.30;87.80;;;;;;3512561;40;20980;-62
2021/06/30 08:59:04;;;;;;;9.00;8.80;;;24.30;87.00;;;;;;3510400;40;20483;-62
2021/06/30 09:01:32;;;;;;;9.10;8.70;;;24.30;87.00;;;;;;3515524;40;20492;-62
2021/06/30 09:04:00;;;;;;;9.10;8.90;;;24.30;87.20;;;;;;3512236;40;20485;-62
2021/06/30 09:06:29;;;;;;;9.37;9.10;;;24.30;87.10;;;;;;3509723;40;20739;-62
2021/06/30 09:09:07;;;;;;;9.17;8.90;;;24.40;87.50;;;;;;3510971;40;20490;-62
2021/06/30 09:11:35;;;;;;;10.00;9.60;;;24.50;87.90;;;;;;3505483;40;20494;-62
2021/06/30 09:14:22;;;;;;;9.50;9.30;;;24.50;88.20;;;;;;3506745;40;20655;-62
2021/06/30 09:16:57;;;;;;;9.07;8.83;;;24.60;88.50;;;;;;3508108;40;20797;-62
2021/06/30 09:19:54;;;;;;;9.70;9.40;;;24.70;88.60;;;;;;3507783;40;20601;-62
2021/06/30 09:22:24;;;;;;;10.10;9.80;;;24.70;88.90;;;;;;3510214;40;20490;-62
2021/06/30 09:24:54;;;;;;;9.93;9.63;;;24.80;89.10;;;;;;3512249;40;20875;-62
2021/06/30 09:27:43;;;;;;;9.17;8.97;;;24.80;89.10;;;;;;3505179;40;20681;-62
2021/06/30 09:30:12;;;;;;;9.90;9.60;;;24.80;89.30;;;;;;3510658;40;20479;-62
2021/06/30 09:32:57;;;;;;;9.40;8.90;;;24.80;89.30;;;;;;3506975;40;20888;-62
2021/06/30 09:35:27;;;;;;;9.77;9.47;;;24.80;89.40;;;;;;3510586;40;20564;-62
2021/06/30 09:37:54;;;;;;;9.27;9.07;;;24.90;89.50;;;;;;3509664;40;20482;-62
2021/06/30 09:40:40;;;;;;;9.20;8.83;;;24.90;89.60;;;;;;3512005;40;20467;-62
2021/06/30 09:43:25;;;;;;;9.00;8.70;;;24.90;89.70;;;;;;3505737;40;21024;-62
2021/06/30 09:45:52;;;;;;;9.27;9.07;;;25.00;89.90;;;;;;3503169;40;20502;-62
2021/06/30 09:48:38;;;;;;;9.23;8.90;;;25.00;89.90;;;;;;3502519;40;20487;-62
2021/06/30 09:51:06;;;;;;;9.80;9.40;;;25.00;90.00;;;;;;3509774;40;20617;-62
2021/06/30 09:53:39;;;;;;;9.57;9.27;;;25.00;90.00;;;;;;3510723;40;20713;-62
2021/06/30 09:56:32;;;;;;;9.73;9.43;;;25.00;90.00;;;;;;3507224;40;20561;-62
2021/06/30 09:59:01;;;;;;;9.40;9.20;;;25.00;90.00;;;;;;3506818;40;20649;-62
2021/06/30 10:01:29;;;;;;;9.87;9.57;;;25.00;90.00;;;;;;3507355;40;20927;-62
2021/06/30 10:03:56;;;;;;;9.53;9.30;;;25.00;90.00;;;;;;3506787;40;20498;-62
2021/06/30 10:06:28;;;;;;;10.30;9.80;;;25.00;90.00;;;;;;3511810;40;20491;-62
2021/06/30 10:08:57;;;;;;;9.90;9.60;;;25.00;90.00;;;;;;3507888;40;20486;-62
2021/06/30 10:11:26;;;;;;;9.30;9.10;;;25.00;90.00;;;;;;3507254;40;20962;-62
2021/06/30 10:13:54;;;;;;;9.47;9.27;;;25.00;90.00;;;;;;3511927;40;20494;-62
2021/06/30 10:16:22;;;;;;;9.07;8.87;;;25.00;90.00;;;;;;3510462;40;21152;-62
2021/06/30 10:18:51;;;;;;;9.03;8.83;;;25.00;90.00;;;;;;3510049;40;20692;-62
2021/06/30 10:21:21;;;;;;;9.10;8.80;;;25.00;90.00;;;;;;3512383;40;20505;-62
2021/06/30 10:23:50;;;;;;;9.40;9.10;;;25.00;90.00;;;;;;3511235;40;20487;-62
2021/06/30 10:26:20;;;;;;;9.43;9.03;;;25.00;90.00;;;;;;3512726;40;20573;-62
2021/06/30 10:28:53;;;;;;;9.20;8.90;;;25.00;90.10;;;;;;3509088;40;20525;-62
2021/06/30 10:31:20;;;;;;;9.30;9.00;;;25.00;90.10;;;;;;3507421;40;21171;-62
2021/06/30 10:34:00;;;;;;;9.77;9.47;;;25.00;90.10;;;;;;3513706;40;20479;-62
2021/06/30 10:36:45;;;;;;;9.60;9.30;;;25.00;90.20;;;;;;3505217;40;20518;-63
2021/06/30 10:39:14;;;;;;;9.80;9.50;;;25.00;90.20;;;;;;3510439;40;20498;-62
2021/06/30 10:41:44;;;;;;;10.07;9.67;;;25.00;90.20;;;;;;3514608;40;20578;-62
2021/06/30 10:44:15;;;;;;;9.90;9.57;;;25.00;90.30;;;;;;3516025;40;20763;-62
2021/06/30 10:46:43;;;;;;;9.47;9.17;;;25.00;90.20;;;;;;3513779;40;20518;-62
2021/06/30 10:49:26;;;;;;;9.90;9.60;;;25.00;90.30;;;;;;3509009;40;20482;-62
2021/06/30 10:51:57;;;;;;;10.03;9.50;;;25.00;90.40;;;;;;3513125;40;20509;-62
2021/06/30 10:54:42;;;;;;;9.83;9.30;;;25.00;90.40;;;;;;3508119;40;21036;-62
2021/06/30 10:57:24;;;;;;;9.60;9.20;;;25.00;90.40;;;;;;3508961;40;20867;-62
2021/06/30 11:00:20;;;;;;;9.60;9.20;;;25.00;90.40;;;;;;3509559;40;20491;-62
2021/06/30 11:03:21;;;;;;;9.73;9.40;;;25.00;90.50;;;;;;3508964;40;20498;-62
2021/06/30 11:05:49;;;;;;;10.20;9.53;;;25.00;90.50;;;;;;3513784;40;21451;-62
2021/06/30 11:08:43;;;;;;;8.97;8.67;;;25.00;90.50;;;;;;3507661;40;20513;-62
2021/06/30 11:11:11;;;;;;;9.50;9.10;;;25.00;90.60;;;;;;3513084;40;20604;-63
2021/06/30 11:13:55;;;;;;;9.47;9.17;;;25.00;90.60;;;;;;3509920;40;21107;-64
2021/06/30 11:16:53;;;;;;;9.90;9.50;;;25.00;90.60;;;;;;3509440;40;20482;-64
2021/06/30 11:19:44;;;;;;;9.00;8.80;;;25.00;90.60;;;;;;3510578;40;20498;-64
2021/06/30 11:22:28;;;;;;;9.60;9.13;;;25.00;90.70;;;;;;3507188;40;20475;-64
2021/06/30 11:24:56;;;;;;;9.77;9.47;;;25.00;90.70;;;;;;3512681;40;20697;-64
2021/06/30 11:27:43;;;;;;;9.30;9.00;;;25.00;90.80;;;;;;3509475;40;20557;-64
2021/06/30 11:30:12;;;;;;;9.77;9.47;;;25.00;90.80;;;;;;3511540;40;20581;-64
2021/06/30 11:32:50;;;;;;;9.40;9.10;;;25.00;90.80;;;;;;3510262;40;20479;-64
2021/06/30 11:35:31;;;;;;;9.30;9.00;;;25.00;90.80;;;;;;3507312;40;20711;-64
2021/06/30 11:38:17;;;;;;;9.37;9.07;;;25.00;90.80;;;;;;3511740;40;20470;-64
2021/06/30 11:40:51;;;;;;;9.50;9.20;;;25.00;90.90;;;;;;3511751;40;20583;-64
2021/06/30 11:43:24;;;;;;;9.37;9.17;;;25.00;90.90;;;;;;3509981;40;20651;-64
2021/06/30 11:45:55;;;;;;;9.03;8.83;;;25.00;90.90;;;;;;3511144;40;20475;-64
2021/06/30 11:48:24;;;;;;;8.87;8.60;;;25.00;90.90;;;;;;3511653;40;20777;-64
2021/06/30 11:50:54;;;;;;;9.03;8.73;;;25.00;90.90;;;;;;3515024;40;20543;-64
2021/06/30 11:53:32;;;;;;;9.10;8.90;;;25.00;90.90;;;;;;3510807;40;20502;-64
2021/06/30 11:56:00;;;;;;;9.70;9.40;;;25.00;91.00;;;;;;3514609;40;20612;-64
2021/06/30 11:58:40;;;;;;;9.93;9.53;;;25.00;91.00;;;;;;3514486;40;20486;-63
2021/06/30 12:01:17;;;;;;;9.20;9.00;;;25.10;91.00;;;;;;3505077;40;20724;-64
2021/06/30 12:03:45;;;;;;;9.00;8.80;;;25.00;91.00;;;;;;3510094;40;20802;-64
2021/06/30 12:06:24;;;;;;;9.50;9.20;;;25.00;90.90;;;;;;3516957;40;20788;-64
2021/06/30 12:09:09;;;;;;;9.70;9.30;;;25.00;91.00;;;;;;3511991;40;20589;-64
2021/06/30 12:11:38;;;;;;;9.50;9.20;;;24.90;91.00;;;;;;3506473;40;20586;-64
2021/06/30 12:14:07;;;;;;;10.00;9.70;;;24.90;91.00;;;;;;3512625;40;20781;-64
2021/06/30 12:16:46;;;;;;;9.87;9.53;;;25.00;91.00;;;;;;3517470;40;20478;-64
2021/06/30 12:19:17;;;;;;;9.17;8.87;;;25.00;91.00;;;;;;3511450;40;20859;-64
2021/06/30 12:21:47;;;;;;;9.90;9.60;;;25.00;91.00;;;;;;3513519;40;20731;-64
2021/06/30 12:24:16;;;;;;;10.00;9.70;;;25.00;91.00;;;;;;3517589;40;20782;-64
2021/06/30 12:27:06;;;;;;;9.70;9.33;;;25.00;91.00;;;;;;3504600;40;20475;-64
2021/06/30 12:29:37;;;;;;;8.80;8.50;;;25.00;91.00;;;;;;3515560;40;20498;-64
2021/06/30 12:32:06;;;;;;;9.60;9.20;;;25.00;90.90;;;;;;3502437;40;20629;-63
2021/06/30 12:34:35;;;;;;;9.17;8.87;;;25.00;91.00;;;;;;3502417;40;20933;-63
2021/06/30 12:37:02;;;;;;;9.20;8.90;;;25.00;90.90;;;;;;3510030;40;20564;-63
2021/06/30 12:39:32;;;;;;;8.73;8.53;;;25.00;90.90;;;;;;3513396;40;20498;-63
2021/06/30 12:42:01;;;;;;;8.73;8.40;;;25.00;91.00;;;;;;3507652;40;20843;-63
2021/06/30 12:44:31;;;;;;;8.77;8.50;;;25.00;91.00;;;;;;3507220;40;20494;-63
2021/06/30 12:47:09;;;;;;;8.40;8.10;;;25.00;91.00;;;;;;3514225;40;20852;-62
2021/06/30 12:49:40;;;;;;;8.07;7.87;;;25.10;91.00;;;;;;3518810;40;20474;-63
2021/06/30 12:52:20;;;;;;;8.70;8.40;;;25.00;91.00;;;;;;3517229;40;20516;-63
2021/06/30 12:55:03;;;;;;;8.93;8.73;;;25.00;91.00;;;;;;3518566;40;20494;-62
2021/06/30 12:57:31;;;;;;;9.73;9.50;;;25.00;91.10;;;;;;3515064;40;20479;-61
2021/06/30 13:00:16;;;;;;;9.10;8.90;;;25.00;91.10;;;;;;3516475;40;20486;-62